KGSP/GSP METAR and TAF weather

Enter ICAO airport designator
Station Type Date Time Source
KGSP METAR 2021/01/27 12:53 UTC NOAA

KGSP 271253Z 26006KT 10SM -RA OVC060 12/04 A3004 RMK AO2 RAB24 SLP169 P0000 T01170044


Station Type Date Time Source
KGSP Decoded METAR 2021/01/27 12:53 UTC NOAA

GREER GREENVILLE SPARTBURG, SC, United States (KGSP) 34-53N 82-13W 286M
Jan 27, 2021 - 07:53 AM EST / 2021.01.27 1253 UTC
Wind: from the W (260 degrees) at 7 MPH (6 KT):0
Visibility: 10 mile(s):0
Sky conditions: overcast
Weather: light rain
Precipitation last hour: A trace
Temperature: 53.1 F (11.7 C)
Dew Point: 39.9 F (4.4 C)
Relative Humidity: 60%
Pressure (altimeter): 30.04 in. Hg (1017 hPa)
ob: KGSP 271253Z 26006KT 10SM -RA OVC060 12/04 A3004 RMK AO2 RAB24 SLP169 P0000 T01170044
cycle: 13

Station Type Date Time Source
KGSP TAF 2021/01/27 12:36 UTC NOAA

TAF KGSP 271134Z 2712/2812 23005KT P6SM -RA OVC050
FM271500 14005KT 6SM -RA BR OVC020
FM271700 16006KT 4SM -SHRA BR OVC008
FM272000 17007KT 6SM BR VCSH OVC007
FM280200 25009KT 5SM -SHRA BR OVC006
FM280400 31012G21KT P6SM VCSH BKN020
FM280700 34014G23KT P6SM SCT120

Example: see airport list